Time;durP1;ratioP1;P1;durP2;ratioP2;P2;SDS_P1;SDS_P2;PMS_P1;PMS_P2;Temp;Humidity;BMP_temperature;BMP_pressure;BME280_temperature;BME280_humidity;BME280_pressure;Samples;Min_cycle;Max_cycle;Signal;HPM_P1;HPM_P2
2022/06/18 00:01:33;;;;;;;;;;;18.40;99.90;;;;;;5031883;28;19929;-71
2022/06/18 00:04:00;;;;;;;;;;;18.40;99.90;;;;;;5032234;28;19972;-71
2022/06/18 00:06:28;;;;;;;;;;;18.20;99.90;;;;;;5031886;28;20368;-71
2022/06/18 00:08:55;;;;;;;;;;;18.30;99.90;;;;;;5031906;28;19932;-74
2022/06/18 00:14:08;;;;;;;;;;;18.20;99.90;;;;;;5032134;28;20320;-72
2022/06/18 00:16:35;;;;;;;;;;;18.20;99.90;;;;;;5032105;28;19925;-74
2022/06/18 00:19:02;;;;;;;;;;;18.10;99.90;;;;;;5032197;28;19925;-72
2022/06/18 00:21:29;;;;;;;;;;;18.00;99.90;;;;;;5031873;28;19925;-72
2022/06/18 00:23:56;;;;;;;;;;;17.70;99.90;;;;;;5031793;28;19925;-73
2022/06/18 00:26:24;;;;;;;;;;;17.60;99.90;;;;;;5031609;28;19925;-72
2022/06/18 00:28:51;;;;;;;;;;;17.60;99.90;;;;;;5032099;28;19960;-72
2022/06/18 00:31:18;;;;;;;;;;;17.50;99.90;;;;;;5031775;28;20279;-72
2022/06/18 00:33:45;;;;;;;;;;;17.40;99.90;;;;;;5031726;28;19925;-73
2022/06/18 00:36:14;;;;;;;;;;;17.40;99.90;;;;;;5031441;28;19929;-72
2022/06/18 00:38:42;;;;;;;;;;;17.80;99.90;;;;;;5031748;28;19929;-72
2022/06/18 00:41:10;;;;;;;;;;;17.80;99.90;;;;;;5031647;28;19929;-73
2022/06/18 00:43:41;;;;;;;;;;;17.70;99.90;;;;;;5031593;28;20003;-72
2022/06/18 00:46:12;;;;;;;;;;;17.60;99.90;;;;;;5031538;28;19936;-72
2022/06/18 00:48:41;;;;;;;;;;;17.70;99.90;;;;;;5031559;28;19980;-74
2022/06/18 00:51:10;;;;;;;;;;;17.70;99.90;;;;;;5031496;28;20028;-73
2022/06/18 00:53:38;;;;;;;;;;;17.80;99.90;;;;;;5031564;28;19975;-73
2022/06/18 00:56:07;;;;;;;;;;;17.80;99.90;;;;;;5031340;28;19987;-72
2022/06/18 00:58:36;;;;;;;;;;;17.80;99.90;;;;;;5031646;28;19925;-72
2022/06/18 01:01:10;;;;;;;;;;;17.80;99.90;;;;;;5031355;28;20317;-72
2022/06/18 01:03:38;;;;;;;;;;;17.90;99.90;;;;;;5031530;28;19936;-73
2022/06/18 01:06:11;;;;;;;;;;;17.80;99.90;;;;;;5031539;28;19925;-73
2022/06/18 01:08:39;;;;;;;;;;;17.70;99.90;;;;;;5031574;28;19987;-73
2022/06/18 01:11:10;;;;;;;;;;;17.70;99.90;;;;;;5031641;28;19925;-73
2022/06/18 01:13:38;;;;;;;;;;;17.70;99.90;;;;;;5033970;28;19925;-73
2022/06/18 01:16:07;;;;;;;;;;;17.50;99.90;;;;;;5034831;28;20117;-72
2022/06/18 01:18:35;;;;;;;;;;;17.50;99.90;;;;;;5035003;28;19925;-73
2022/06/18 01:21:04;;;;;;;;;;;17.50;99.90;;;;;;5035073;28;19929;-72
2022/06/18 01:23:35;;;;;;;;;;;17.40;99.90;;;;;;5034878;28;19931;-73
2022/06/18 01:26:04;;;;;;;;;;;17.30;99.90;;;;;;5034575;28;19979;-72
2022/06/18 01:28:31;;;;;;;;;;;17.20;99.90;;;;;;5034814;28;19925;-72
2022/06/18 01:30:57;;;;;;;;;;;17.10;99.90;;;;;;5034832;28;19983;-74
2022/06/18 01:33:25;;;;;;;;;;;17.10;99.90;;;;;;5034710;28;20059;-73
2022/06/18 01:35:53;;;;;;;;;;;17.20;99.90;;;;;;5034667;28;19971;-72
2022/06/18 01:38:20;;;;;;;;;;;17.20;99.90;;;;;;5034642;28;19979;-74
2022/06/18 01:40:51;;;;;;;;;;;17.10;99.90;;;;;;5034375;28;19929;-73
2022/06/18 01:43:20;;;;;;;;;;;17.10;99.90;;;;;;5034612;28;19936;-72
2022/06/18 01:45:48;;;;;;;;;;;17.00;99.90;;;;;;5034637;28;20380;-72
2022/06/18 01:48:17;;;;;;;;;;;16.90;99.90;;;;;;5034663;28;20296;-73
2022/06/18 01:50:46;;;;;;;;;;;17.00;99.90;;;;;;5034401;28;20031;-72
2022/06/18 01:53:15;;;;;;;;;;;17.00;99.90;;;;;;5034306;28;20343;-72
2022/06/18 01:55:44;;;;;;;;;;;17.10;99.90;;;;;;5034403;28;20281;-73
2022/06/18 01:58:12;;;;;;;;;;;17.20;99.90;;;;;;5034206;28;19972;-73
2022/06/18 02:00:41;;;;;;;;;;;17.20;99.90;;;;;;5034272;28;20343;-72
2022/06/18 02:03:08;;;;;;;;;;;17.10;99.90;;;;;;5034131;28;19935;-74
2022/06/18 02:05:37;;;;;;;;;;;17.00;99.90;;;;;;5033897;28;19925;-73
2022/06/18 02:08:04;;;;;;;;;;;17.00;99.90;;;;;;5034190;28;19952;-74
2022/06/18 02:10:33;;;;;;;;;;;16.90;99.90;;;;;;5034233;28;19964;-75
2022/06/18 02:13:01;;;;;;;;;;;16.90;99.90;;;;;;5034005;28;20381;-73
2022/06/18 02:15:30;;;;;;;;;;;16.90;99.90;;;;;;5033959;28;19936;-74
2022/06/18 02:18:02;;;;;;;;;;;16.70;99.90;;;;;;5033912;28;19987;-73
2022/06/18 02:20:30;;;;;;;;;;;16.70;99.90;;;;;;5033825;28;19975;-74
2022/06/18 02:22:57;;;;;;;;;;;16.70;99.90;;;;;;5033720;28;19971;-72
2022/06/18 02:25:26;;;;;;;;;;;16.80;99.90;;;;;;5032956;28;19929;-71
2022/06/18 02:27:57;;;;;;;;;;;16.80;99.90;;;;;;5033600;28;19991;-73
2022/06/18 02:30:25;;;;;;;;;;;16.80;99.90;;;;;;5033747;28;19925;-73
2022/06/18 02:32:55;;;;;;;;;;;16.50;99.90;;;;;;5033510;28;19929;-75
2022/06/18 02:35:24;;;;;;;;;;;16.60;99.90;;;;;;5033340;28;19971;-73
2022/06/18 02:37:51;;;;;;;;;;;16.60;99.90;;;;;;5033595;28;19932;-74
2022/06/18 02:40:20;;;;;;;;;;;16.50;99.90;;;;;;5033694;28;19967;-73
2022/06/18 02:42:48;;;;;;;;;;;16.50;99.90;;;;;;5033505;28;19968;-74
2022/06/18 02:45:15;;;;;;;;;;;16.40;99.90;;;;;;5033219;28;20390;-72
2022/06/18 02:47:42;;;;;;;;;;;16.50;99.90;;;;;;5033285;28;19978;-73
2022/06/18 02:50:10;;;;;;;;;;;16.50;99.90;;;;;;5033425;28;19929;-73
2022/06/18 02:52:41;;;;;;;;;;;16.40;99.90;;;;;;5033319;28;19925;-72
2022/06/18 02:55:10;;;;;;;;;;;16.30;99.90;;;;;;5033098;28;19929;-71
2022/06/18 02:57:37;;;;;;;;;;;16.20;99.90;;;;;;5032982;28;20377;-72
2022/06/18 03:00:05;;;;;;;;;;;16.20;99.90;;;;;;5032936;28;19925;-74
2022/06/18 03:02:32;;;;;;;;;;;16.30;99.90;;;;;;5032957;28;20400;-73
2022/06/18 03:04:59;;;;;;;;;;;16.40;99.90;;;;;;5032780;28;19975;-73
2022/06/18 03:07:26;;;;;;;;;;;16.40;99.90;;;;;;5032985;28;19979;-73
2022/06/18 03:12:38;;;;;;;;;;;16.40;99.90;;;;;;5033005;28;19932;-73
2022/06/18 03:15:05;;;;;;;;;;;16.40;99.90;;;;;;5032646;28;19925;-73
2022/06/18 03:17:32;;;;;;;;;;;16.40;99.90;;;;;;5032868;28;20443;-73
2022/06/18 03:20:02;;;;;;;;;;;16.20;99.90;;;;;;5033391;28;19925;-73
2022/06/18 03:22:29;;;;;;;;;;;16.20;99.90;;;;;;5032669;28;19990;-73
2022/06/18 03:24:57;;;;;;;;;;;16.20;99.90;;;;;;5032489;28;20285;-73
2022/06/18 03:27:24;;;;;;;;;;;16.30;99.90;;;;;;5032849;28;19979;-74
2022/06/18 03:29:52;;;;;;;;;;;16.20;99.90;;;;;;5032687;28;19947;-73
2022/06/18 03:32:19;;;;;;;;;;;16.20;99.90;;;;;;5032438;28;20008;-71
2022/06/18 03:34:45;;;;;;;;;;;16.20;99.90;;;;;;5032464;28;19932;-73
2022/06/18 03:37:12;;;;;;;;;;;16.20;99.90;;;;;;5031616;28;20325;-75
2022/06/18 03:39:39;;;;;;;;;;;16.40;99.90;;;;;;5032188;28;19975;-74
2022/06/18 03:42:07;;;;;;;;;;;16.50;99.90;;;;;;5032353;28;19978;-73
2022/06/18 03:44:34;;;;;;;;;;;16.50;99.90;;;;;;5032085;28;19929;-72
2022/06/18 03:47:02;;;;;;;;;;;16.70;99.90;;;;;;5032553;28;19929;-73
2022/06/18 03:49:30;;;;;;;;;;;16.60;99.90;;;;;;5032637;28;19971;-73
2022/06/18 03:51:57;;;;;;;;;;;16.70;99.90;;;;;;5032674;28;19975;-73
2022/06/18 03:54:25;;;;;;;;;;;16.50;99.90;;;;;;5032535;28;19995;-72
2022/06/18 03:56:52;;;;;;;;;;;16.60;99.90;;;;;;5031995;28;20000;-71
2022/06/18 03:59:20;;;;;;;;;;;16.60;99.90;;;;;;5032158;28;19925;-73
2022/06/18 04:01:47;;;;;;;;;;;16.50;99.90;;;;;;5032241;28;19925;-72
2022/06/18 04:04:14;;;;;;;;;;;16.50;99.90;;;;;;5032150;28;19925;-73
2022/06/18 04:06:42;;;;;;;;;;;16.40;99.90;;;;;;5031938;28;20025;-73
2022/06/18 04:09:09;;;;;;;;;;;16.50;99.90;;;;;;5032040;28;19931;-73
2022/06/18 04:11:36;;;;;;;;;;;16.80;99.90;;;;;;5031982;28;19925;-73
2022/06/18 04:14:03;;;;;;;;;;;16.90;99.90;;;;;;5032465;28;19948;-72
2022/06/18 04:16:32;;;;;;;;;;;16.90;99.90;;;;;;5031798;28;19925;-73
2022/06/18 04:18:58;;;;;;;;;;;16.90;99.90;;;;;;5032270;28;19925;-72
2022/06/18 04:21:25;;;;;;;;;;;16.90;99.90;;;;;;5032221;28;19948;-73
2022/06/18 04:23:52;;;;;;;;;;;17.10;99.90;;;;;;5031767;28;20328;-74
2022/06/18 04:26:19;;;;;;;;;;;17.00;99.90;;;;;;5031715;28;20444;-73
2022/06/18 04:28:46;;;;;;;;;;;17.10;99.90;;;;;;5031883;28;19959;-75
2022/06/18 04:31:13;;;;;;;;;;;17.10;99.90;;;;;;5032051;28;20281;-75
2022/06/18 04:33:42;;;;;;;;;;;17.10;99.90;;;;;;5031883;28;20341;-72
2022/06/18 04:36:18;;;;;;;;;;;17.10;99.90;;;;;;5031639;28;19925;-73
2022/06/18 04:38:45;;;;;;;;;;;17.10;99.90;;;;;;5031744;28;19925;-74
2022/06/18 04:41:12;;;;;;;;;;;17.20;99.90;;;;;;5031657;28;19925;-73
2022/06/18 04:43:39;;;;;;;;;;;17.20;99.90;;;;;;5032165;28;20281;-74
2022/06/18 04:46:06;;;;;;;;;;;17.30;99.90;;;;;;5031240;28;19940;-74
2022/06/18 04:48:32;;;;;;;;;;;17.40;99.90;;;;;;5034752;28;20465;-73
2022/06/18 04:51:01;;;;;;;;;;;17.50;99.90;;;;;;5035517;28;20340;-74
2022/06/18 04:53:27;;;;;;;;;;;17.50;99.90;;;;;;5035470;28;20063;-74
2022/06/18 04:55:54;;;;;;;;;;;17.50;99.90;;;;;;5035293;28;19995;-73
2022/06/18 04:58:21;;;;;;;;;;;17.70;99.90;;;;;;5035381;28;19995;-74
2022/06/18 05:00:48;;;;;;;;;;;17.70;99.90;;;;;;5035475;28;19983;-74
2022/06/18 05:03:16;;;;;;;;;;;17.70;99.90;;;;;;5035424;28;19932;-74
2022/06/18 05:05:42;;;;;;;;;;;17.90;99.90;;;;;;5035020;28;19925;-72
2022/06/18 05:08:10;;;;;;;;;;;18.00;99.90;;;;;;5035305;28;19925;-72
2022/06/18 05:10:37;;;;;;;;;;;18.10;99.90;;;;;;5035044;28;20353;-74
2022/06/18 05:13:06;;;;;;;;;;;18.10;99.90;;;;;;5034982;28;20298;-73
2022/06/18 05:15:33;;;;;;;;;;;18.20;99.90;;;;;;5035209;28;19925;-74
2022/06/18 05:18:00;;;;;;;;;;;18.20;99.90;;;;;;5035256;28;19925;-75
2022/06/18 05:20:27;;;;;;;;;;;18.20;99.90;;;;;;5034973;28;19932;-74
2022/06/18 05:22:54;;;;;;;;;;;18.20;99.90;;;;;;5034982;28;19979;-73
2022/06/18 05:25:22;;;;;;;;;;;18.30;99.90;;;;;;5034482;28;19932;-73
2022/06/18 05:27:49;;;;;;;;;;;18.40;99.90;;;;;;5034816;28;20436;-74
2022/06/18 05:30:17;;;;;;;;;;;18.50;99.90;;;;;;5034702;28;19929;-73
2022/06/18 05:32:44;;;;;;;;;;;18.60;99.90;;;;;;5034941;28;19929;-73
2022/06/18 05:35:11;;;;;;;;;;;18.70;99.90;;;;;;5034605;28;19925;-74
2022/06/18 05:37:38;;;;;;;;;;;18.70;99.90;;;;;;5034629;28;19932;-74
2022/06/18 05:40:06;;;;;;;;;;;18.80;99.90;;;;;;5034549;28;19924;-74
2022/06/18 05:42:34;;;;;;;;;;;18.80;99.90;;;;;;5034771;28;19929;-73
2022/06/18 05:45:01;;;;;;;;;;;18.90;99.90;;;;;;5033965;28;19925;-74
2022/06/18 05:47:30;;;;;;;;;;;19.00;99.90;;;;;;5034349;28;19925;-74
2022/06/18 05:49:58;;;;;;;;;;;19.20;99.90;;;;;;5034385;28;20012;-75
2022/06/18 05:52:25;;;;;;;;;;;19.40;99.90;;;;;;5034313;28;20378;-75
2022/06/18 05:54:52;;;;;;;;;;;19.40;99.40;;;;;;5034139;28;20397;-74
2022/06/18 05:57:19;;;;;;;;;;;19.50;99.40;;;;;;5034386;28;19925;-73
2022/06/18 05:59:47;;;;;;;;;;;19.60;98.80;;;;;;5033209;28;19979;-73
2022/06/18 06:02:15;;;;;;;;;;;19.60;98.60;;;;;;5034481;28;19925;-74
2022/06/18 06:04:42;;;;;;;;;;;19.70;98.20;;;;;;5034067;28;19979;-74
2022/06/18 06:07:09;;;;;;;;;;;19.70;98.20;;;;;;5033921;28;19932;-73
2022/06/18 06:12:20;;;;;;;;;;;20.00;98.20;;;;;;5034104;28;19932;-71
2022/06/18 06:14:48;;;;;;;;;;;20.10;97.90;;;;;;5033984;28;19929;-72
2022/06/18 06:17:17;;;;;;;;;;;20.10;98.00;;;;;;5034039;28;19925;-72
2022/06/18 06:19:43;;;;;;;;;;;20.30;97.90;;;;;;5033595;28;19925;-73
2022/06/18 06:22:10;;;;;;;;;;;20.50;97.70;;;;;;5033917;28;19979;-73
2022/06/18 06:24:37;;;;;;;;;;;20.50;97.50;;;;;;5033741;28;19925;-72
2022/06/18 06:27:04;;;;;;;;;;;20.60;97.40;;;;;;5033576;28;19925;-72
2022/06/18 06:29:31;;;;;;;;;;;20.80;97.60;;;;;;5033694;28;19925;-74
2022/06/18 06:31:59;;;;;;;;;;;20.90;97.30;;;;;;5033683;28;19924;-74
2022/06/18 06:34:26;;;;;;;;;;;20.80;97.30;;;;;;5033597;28;20309;-74
2022/06/18 06:36:52;;;;;;;;;;;21.00;97.30;;;;;;5033408;28;19929;-75
2022/06/18 06:39:19;;;;;;;;;;;21.20;97.30;;;;;;5033352;28;19925;-74
2022/06/18 06:41:46;;;;;;;;;;;21.30;97.00;;;;;;5033531;28;19980;-73
2022/06/18 06:44:13;;;;;;;;;;;21.40;96.70;;;;;;5033344;28;19975;-73
2022/06/18 06:46:40;;;;;;;;;;;21.50;96.70;;;;;;5032956;28;20024;-74
2022/06/18 06:49:08;;;;;;;;;;;21.40;96.60;;;;;;5033345;28;20007;-73
2022/06/18 06:51:37;;;;;;;;;;;21.50;96.50;;;;;;5033322;28;19929;-74
2022/06/18 06:54:04;;;;;;;;;;;21.50;96.70;;;;;;5033216;28;19925;-73
2022/06/18 06:59:15;;;;;;;;;;;21.80;96.20;;;;;;5033166;28;19928;-74
2022/06/18 07:01:42;;;;;;;;;;;22.00;96.20;;;;;;5033102;28;19929;-75
2022/06/18 07:04:12;;;;;;;;;;;22.10;96.10;;;;;;5033414;28;19975;-72
2022/06/18 07:06:39;;;;;;;;;;;22.20;96.10;;;;;;5032790;28;19929;-72
2022/06/18 07:09:07;;;;;;;;;;;22.40;95.70;;;;;;5032918;28;19925;-72
2022/06/18 07:11:34;;;;;;;;;;;22.70;95.70;;;;;;5032645;28;19979;-72
2022/06/18 07:14:01;;;;;;;;;;;22.60;96.20;;;;;;5032855;28;19925;-72
2022/06/18 07:16:27;;;;;;;;;;;22.60;95.50;;;;;;5032388;28;19925;-71
2022/06/18 07:18:56;;;;;;;;;;;22.90;95.60;;;;;;5032819;28;19928;-71
2022/06/18 07:21:25;;;;;;;;;;;22.90;95.50;;;;;;5032836;28;19925;-70
2022/06/18 07:23:52;;;;;;;;;;;23.00;95.60;;;;;;5032810;28;19928;-71
2022/06/18 07:26:21;;;;;;;;;;;23.10;95.80;;;;;;5032256;28;19935;-71
2022/06/18 07:28:48;;;;;;;;;;;23.20;95.30;;;;;;5032672;28;19925;-71
2022/06/18 07:31:17;;;;;;;;;;;23.40;95.30;;;;;;5032535;28;20451;-70
2022/06/18 07:33:44;;;;;;;;;;;23.40;95.30;;;;;;5032521;28;19925;-70
2022/06/18 07:36:11;;;;;;;;;;;23.60;94.70;;;;;;5032256;28;19932;-70
2022/06/18 07:38:39;;;;;;;;;;;23.70;94.70;;;;;;5032574;28;19929;-70
2022/06/18 07:41:06;;;;;;;;;;;23.90;94.50;;;;;;5032383;28;19972;-70
2022/06/18 07:43:35;;;;;;;;;;;24.20;94.70;;;;;;5032370;28;19986;-71
2022/06/18 07:46:02;;;;;;;;;;;24.50;94.20;;;;;;5031937;28;20309;-70
2022/06/18 07:48:29;;;;;;;;;;;24.70;94.00;;;;;;5032353;28;19929;-70
2022/06/18 07:50:56;;;;;;;;;;;24.80;93.80;;;;;;5032169;28;19925;-70
2022/06/18 07:53:24;;;;;;;;;;;24.80;94.00;;;;;;5032351;28;19995;-70
2022/06/18 07:55:54;;;;;;;;;;;24.90;93.50;;;;;;5032000;28;19932;-70
2022/06/18 07:58:21;;;;;;;;;;;25.20;93.50;;;;;;5033055;28;19925;-71
2022/06/18 08:00:48;;;;;;;;;;;25.50;92.60;;;;;;5032129;28;20344;-71
2022/06/18 08:03:16;;;;;;;;;;;25.20;92.80;;;;;;5032063;28;19925;-71
2022/06/18 08:05:43;;;;;;;;;;;25.10;93.40;;;;;;5031783;28;19929;-70
2022/06/18 08:08:11;;;;;;;;;;;25.50;92.70;;;;;;5032349;28;19925;-70
2022/06/18 08:10:38;;;;;;;;;;;25.70;92.40;;;;;;5031884;28;19925;-70
2022/06/18 08:13:07;;;;;;;;;;;25.80;92.50;;;;;;5031978;28;19929;-70
2022/06/18 08:15:34;;;;;;;;;;;25.90;92.30;;;;;;5031752;28;20000;-71
2022/06/18 08:18:01;;;;;;;;;;;25.80;92.80;;;;;;5032053;28;19971;-71
2022/06/18 08:20:29;;;;;;;;;;;25.90;92.60;;;;;;5031719;28;20352;-70
2022/06/18 08:22:57;;;;;;;;;;;25.90;92.60;;;;;;5033825;28;20347;-70
2022/06/18 08:25:25;;;;;;;;;;;25.70;92.20;;;;;;5035663;28;19956;-70
2022/06/18 08:27:53;;;;;;;;;;;25.90;92.00;;;;;;5035976;28;20344;-70
2022/06/18 08:30:21;;;;;;;;;;;26.00;92.10;;;;;;5035901;28;20375;-70
2022/06/18 08:32:48;;;;;;;;;;;25.90;92.10;;;;;;5035865;28;20344;-70
2022/06/18 08:35:15;;;;;;;;;;;26.20;92.30;;;;;;5035553;28;19928;-71
2022/06/18 08:37:42;;;;;;;;;;;26.70;91.50;;;;;;5035825;28;19925;-72
2022/06/18 08:40:34;;;;;;;;;;;27.20;90.90;;;;;;5035812;28;19925;-72
2022/06/18 08:43:03;;;;;;;;;;;27.50;90.20;;;;;;5035465;28;19929;-73
2022/06/18 08:45:36;;;;;;;;;;;28.20;89.80;;;;;;5035157;28;20031;-72
2022/06/18 08:48:15;;;;;;;;;;;28.80;88.40;;;;;;5035598;28;19925;-72
2022/06/18 08:50:52;;;;;;;;;;;28.40;89.00;;;;;;5035569;28;19929;-72
2022/06/18 08:53:34;;;;;;;;;;;28.10;89.30;;;;;;5035560;28;19926;-72
2022/06/18 08:56:03;;;;;;;;;;;28.90;87.70;;;;;;5033792;28;19925;-72
2022/06/18 08:58:32;;;;;;;;;;;29.30;86.30;;;;;;5035568;28;20016;-72
2022/06/18 09:01:02;;;;;;;;;;;29.60;87.00;;;;;;5035358;28;20348;-72
2022/06/18 09:03:33;;;;;;;;;;;30.10;85.30;;;;;;5035323;28;19925;-72
2022/06/18 09:06:06;;;;;;;;;;;30.90;83.60;;;;;;5034855;28;20358;-72
2022/06/18 09:08:46;;;;;;;;;;;31.00;82.70;;;;;;5034906;28;20352;-72
2022/06/18 09:11:24;;;;;;;;;;;31.60;82.60;;;;;;5035466;28;19994;-73
2022/06/18 09:13:54;;;;;;;;;;;31.70;81.20;;;;;;5035162;28;19925;-72
2022/06/18 09:16:25;;;;;;;;;;;32.00;80.40;;;;;;5034755;28;19948;-72
2022/06/18 09:18:53;;;;;;;;;;;31.90;80.30;;;;;;5035199;28;19932;-73
2022/06/18 09:21:22;;;;;;;;;;;32.00;79.70;;;;;;5035060;28;19925;-72
2022/06/18 09:23:51;;;;;;;;;;;31.60;79.50;;;;;;5035296;28;19932;-72
2022/06/18 09:26:20;;;;;;;;;;;31.80;78.70;;;;;;5034466;28;20476;-73
2022/06/18 09:28:49;;;;;;;;;;;31.80;78.40;;;;;;5034839;28;19925;-72
2022/06/18 09:31:19;;;;;;;;;;;32.00;77.50;;;;;;5034783;28;20368;-72
2022/06/18 09:33:50;;;;;;;;;;;32.30;77.30;;;;;;5034675;28;19987;-72
2022/06/18 09:36:18;;;;;;;;;;;33.60;77.30;;;;;;5034619;28;19986;-73
2022/06/18 09:38:47;;;;;;;;;;;32.50;78.20;;;;;;5034650;28;19971;-73
2022/06/18 09:41:16;;;;;;;;;;;32.60;77.80;;;;;;5034689;28;19979;-72
2022/06/18 09:43:46;;;;;;;;;;;32.30;78.10;;;;;;5034542;28;19960;-72
2022/06/18 09:46:16;;;;;;;;;;;32.40;78.30;;;;;;5034273;28;19928;-72
2022/06/18 09:48:43;;;;;;;;;;;32.50;77.10;;;;;;5034564;28;19925;-73
2022/06/18 09:51:16;;;;;;;;;;;32.80;76.70;;;;;;5034541;28;19932;-73
2022/06/18 09:53:44;;;;;;;;;;;33.50;76.60;;;;;;5034499;28;19925;-73
2022/06/18 09:56:12;;;;;;;;;;;33.90;74.50;;;;;;5033843;28;19932;-73
2022/06/18 09:58:42;;;;;;;;;;;33.30;76.20;;;;;;5034387;28;19925;-72
2022/06/18 10:01:10;;;;;;;;;;;33.50;77.00;;;;;;5034015;28;19936;-72
2022/06/18 10:09:10;;;;;;;;;;;34.50;72.70;;;;;;5034226;28;19972;-73
2022/06/18 10:11:38;;;;;;;;;;;34.00;73.20;;;;;;5034098;28;19979;-72
2022/06/18 10:14:06;;;;;;;;;;;34.60;74.30;;;;;;5034087;28;20366;-72
2022/06/18 10:16:39;;;;;;;;;;;33.70;72.50;;;;;;5033908;28;20223;-73
2022/06/18 10:19:11;;;;;;;;;;;34.10;73.30;;;;;;5033722;28;20459;-73
2022/06/18 10:21:43;;;;;;;;;;;34.70;72.50;;;;;;5033831;28;19925;-73
2022/06/18 10:24:14;;;;;;;;;;;34.10;72.60;;;;;;5034035;28;19964;-72
2022/06/18 10:26:44;;;;;;;;;;;34.40;72.60;;;;;;5033713;28;19925;-73
2022/06/18 10:29:15;;;;;;;;;;;34.80;72.10;;;;;;5033569;28;19987;-73
2022/06/18 10:31:50;;;;;;;;;;;34.60;70.50;;;;;;5033952;28;19924;-72
2022/06/18 10:34:28;;;;;;;;;;;34.40;70.80;;;;;;5033847;28;19995;-72
2022/06/18 10:37:02;;;;;;;;;;;34.00;71.70;;;;;;5033638;28;19929;-72
2022/06/18 10:39:32;;;;;;;;;;;34.20;70.60;;;;;;5033567;28;19956;-72
2022/06/18 10:42:05;;;;;;;;;;;34.10;70.80;;;;;;5033570;28;20459;-72
2022/06/18 10:44:38;;;;;;;;;;;35.30;70.10;;;;;;5033451;28;19929;-72
2022/06/18 10:47:06;;;;;;;;;;;35.10;69.70;;;;;;5032854;28;19936;-72
2022/06/18 10:49:33;;;;;;;;;;;35.10;68.90;;;;;;5033458;28;20270;-72
2022/06/18 10:52:01;;;;;;;;;;;36.50;67.30;;;;;;5033355;28;19979;-73
2022/06/18 10:54:30;;;;;;;;;;;35.30;68.60;;;;;;5033251;28;20340;-73
2022/06/18 10:56:57;;;;;;;;;;;35.70;66.60;;;;;;5032970;28;19971;-73
2022/06/18 10:59:28;;;;;;;;;;;34.90;68.30;;;;;;5033388;28;20024;-73
2022/06/18 11:01:55;;;;;;;;;;;34.80;68.10;;;;;;5033124;28;19932;-73
2022/06/18 11:04:23;;;;;;;;;;;35.60;68.10;;;;;;5033142;28;19925;-73
2022/06/18 11:06:53;;;;;;;;;;;35.10;68.40;;;;;;5033251;28;19925;-73
2022/06/18 11:09:25;;;;;;;;;;;34.70;68.90;;;;;;5032914;28;19925;-73
2022/06/18 11:11:53;;;;;;;;;;;35.60;67.90;;;;;;5033018;28;19971;-73
2022/06/18 11:14:20;;;;;;;;;;;34.30;68.90;;;;;;5032901;28;19931;-72
2022/06/18 11:16:48;;;;;;;;;;;34.70;69.10;;;;;;5032659;28;19925;-72
2022/06/18 11:19:17;;;;;;;;;;;35.60;67.10;;;;;;5032727;28;19998;-72
2022/06/18 11:21:44;;;;;;;;;;;36.60;66.10;;;;;;5032730;28;19925;-72
2022/06/18 11:24:20;;;;;;;;;;;37.70;65.20;;;;;;5032752;28;20012;-73
2022/06/18 11:26:55;;;;;;;;;;;36.70;64.10;;;;;;5032533;28;19925;-73
2022/06/18 11:29:24;;;;;;;;;;;36.00;64.90;;;;;;5032835;28;19930;-73
2022/06/18 11:31:53;;;;;;;;;;;36.60;65.00;;;;;;5032613;28;19971;-73
2022/06/18 11:34:22;;;;;;;;;;;36.50;65.30;;;;;;5032742;28;19925;-72
2022/06/18 11:36:50;;;;;;;;;;;36.40;65.40;;;;;;5032535;28;19929;-72
2022/06/18 11:39:25;;;;;;;;;;;36.60;65.20;;;;;;5032390;28;19955;-72
2022/06/18 11:41:54;;;;;;;;;;;36.40;67.00;;;;;;5032670;28;19925;-72
2022/06/18 11:44:23;;;;;;;;;;;36.80;65.10;;;;;;5032371;28;19995;-72
2022/06/18 11:46:52;;;;;;;;;;;36.40;65.90;;;;;;5031671;28;20282;-72
2022/06/18 11:49:20;;;;;;;;;;;36.70;65.50;;;;;;5032338;28;19944;-72
2022/06/18 11:51:52;;;;;;;;;;;37.10;64.60;;;;;;5032527;28;19925;-72
2022/06/18 11:54:23;;;;;;;;;;;37.00;65.30;;;;;;5032223;28;19940;-71
2022/06/18 11:56:56;;;;;;;;;;;37.70;62.90;;;;;;5031446;28;19925;-72
2022/06/18 11:59:27;;;;;;;;;;;37.10;63.10;;;;;;5032148;28;20113;-72
2022/06/18 12:01:56;;;;;;;;;;;36.40;65.30;;;;;;5032181;28;19925;-72
2022/06/18 12:04:27;;;;;;;;;;;37.00;64.30;;;;;;5032259;28;19930;-72
2022/06/18 12:06:58;;;;;;;;;;;38.90;62.60;;;;;;5031734;28;19929;-72
2022/06/18 12:09:26;;;;;;;;;;;36.90;62.70;;;;;;5032018;28;20016;-72
2022/06/18 12:12:02;;;;;;;;;;;36.40;64.10;;;;;;5031952;28;19925;-72
2022/06/18 12:14:32;;;;;;;;;;;36.40;63.90;;;;;;5031954;28;19932;-72
2022/06/18 12:17:02;;;;;;;;;;;36.00;65.30;;;;;;5031786;28;19987;-72
2022/06/18 12:19:33;;;;;;;;;;;37.00;62.50;;;;;;5031929;28;20408;-72
2022/06/18 12:22:03;;;;;;;;;;;38.10;61.90;;;;;;5031860;28;19989;-72
2022/06/18 12:24:33;;;;;;;;;;;39.80;60.30;;;;;;5031804;28;20407;-73
2022/06/18 12:27:03;;;;;;;;;;;39.00;60.10;;;;;;5031793;28;19925;-73
2022/06/18 12:29:48;;;;;;;;;;;40.00;60.00;;;;;;5032344;28;19960;-73
2022/06/18 12:32:21;;;;;;;;;;;38.70;60.70;;;;;;5032685;28;19931;-73
2022/06/18 12:34:56;;;;;;;;;;;37.00;62.60;;;;;;5031735;28;19924;-73
2022/06/18 12:37:27;;;;;;;;;;;37.60;61.70;;;;;;5031854;28;19932;-72
2022/06/18 12:39:57;;;;;;;;;;;37.60;62.40;;;;;;5031762;28;19932;-72
2022/06/18 12:42:28;;;;;;;;;;;37.80;62.40;;;;;;5031885;28;19936;-73
2022/06/18 12:45:03;;;;;;;;;;;38.90;60.70;;;;;;5031404;28;19932;-73
2022/06/18 12:47:35;;;;;;;;;;;38.10;61.60;;;;;;5031486;28;19960;-73
2022/06/18 12:50:06;;;;;;;;;;;37.70;60.80;;;;;;5031669;28;20000;-73
2022/06/18 12:52:37;;;;;;;;;;;39.00;61.30;;;;;;5031599;28;20285;-72
2022/06/18 12:55:10;;;;;;;;;;;38.10;59.90;;;;;;5031624;28;19968;-73
2022/06/18 12:57:45;;;;;;;;;;;38.80;60.10;;;;;;5031494;28;20377;-73
2022/06/18 13:00:14;;;;;;;;;;;37.60;61.10;;;;;;5031566;28;19972;-73
2022/06/18 13:02:58;;;;;;;;;;;37.30;62.00;;;;;;5031581;28;19926;-73
2022/06/18 13:05:33;;;;;;;;;;;37.10;61.60;;;;;;5031329;28;19979;-73
2022/06/18 13:08:04;;;;;;;;;;;38.10;61.20;;;;;;5031679;28;20343;-73
2022/06/18 13:10:35;;;;;;;;;;;37.60;61.60;;;;;;5035267;28;19979;-73
2022/06/18 13:13:11;;;;;;;;;;;37.90;62.10;;;;;;5035636;28;19925;-72
2022/06/18 13:15:41;;;;;;;;;;;37.10;62.00;;;;;;5035073;28;19925;-72
2022/06/18 13:18:12;;;;;;;;;;;37.10;62.10;;;;;;5035056;28;19933;-72
2022/06/18 13:20:40;;;;;;;;;;;37.70;62.00;;;;;;5034982;28;19926;-72
2022/06/18 13:28:36;;;;;;;;;;;37.20;61.70;;;;;;5034875;28;20075;-73
2022/06/18 13:31:04;;;;;;;;;;;37.20;61.60;;;;;;5034904;28;20348;-72
2022/06/18 13:33:39;;;;;;;;;;;37.60;61.40;;;;;;5034757;28;20389;-72
2022/06/18 13:36:10;;;;;;;;;;;37.30;61.50;;;;;;5034845;28;19936;-72
2022/06/18 13:38:42;;;;;;;;;;;38.30;60.80;;;;;;5034728;28;20398;-72
2022/06/18 13:41:11;;;;;;;;;;;37.70;61.80;;;;;;5034635;28;20313;-73
2022/06/18 13:43:44;;;;;;;;;;;37.30;61.30;;;;;;5034660;28;19960;-73
2022/06/18 13:46:14;;;;;;;;;;;37.70;61.00;;;;;;5034277;28;19932;-73
2022/06/18 13:48:53;;;;;;;;;;;38.40;61.10;;;;;;5034602;28;19987;-73
2022/06/18 13:51:26;;;;;;;;;;;38.40;60.10;;;;;;5034446;28;19929;-73
2022/06/18 13:54:03;;;;;;;;;;;38.50;60.00;;;;;;5034462;28;20476;-74
2022/06/18 13:56:30;;;;;;;;;;;37.90;60.00;;;;;;5034251;28;19925;-73
2022/06/18 13:58:59;;;;;;;;;;;37.60;61.30;;;;;;5034641;28;19983;-73
2022/06/18 14:01:26;;;;;;;;;;;37.30;62.20;;;;;;5034315;28;19925;-73
2022/06/18 14:03:54;;;;;;;;;;;37.10;62.40;;;;;;5034329;28;19925;-73
2022/06/18 14:06:22;;;;;;;;;;;37.00;62.20;;;;;;5033807;28;19929;-73
2022/06/18 14:08:51;;;;;;;;;;;37.10;61.60;;;;;;5034199;28;19925;-73
2022/06/18 14:11:28;;;;;;;;;;;37.50;61.10;;;;;;5034122;28;20020;-73
2022/06/18 14:13:55;;;;;;;;;;;37.30;61.40;;;;;;5033994;28;20305;-73
2022/06/18 14:16:29;;;;;;;;;;;38.50;61.30;;;;;;5033979;28;19968;-73
2022/06/18 14:19:05;;;;;;;;;;;38.20;61.40;;;;;;5033797;28;19971;-73
2022/06/18 14:21:34;;;;;;;;;;;39.10;60.10;;;;;;5033118;28;19929;-73
2022/06/18 14:24:01;;;;;;;;;;;38.20;59.90;;;;;;5034460;28;20002;-73
2022/06/18 14:26:38;;;;;;;;;;;37.70;60.90;;;;;;5033566;28;19979;-73
2022/06/18 14:29:04;;;;;;;;;;;37.90;61.10;;;;;;5033919;28;20386;-73
2022/06/18 14:31:36;;;;;;;;;;;37.90;61.70;;;;;;5033513;28;19929;-73
2022/06/18 14:34:06;;;;;;;;;;;37.20;61.10;;;;;;5033767;28;19929;-74
2022/06/18 14:36:35;;;;;;;;;;;37.80;61.50;;;;;;5033355;28;19929;-73
2022/06/18 14:39:03;;;;;;;;;;;37.10;62.10;;;;;;5033585;28;20017;-73
2022/06/18 14:41:35;;;;;;;;;;;37.80;61.90;;;;;;5033372;28;19925;-74
2022/06/18 14:44:15;;;;;;;;;;;37.20;61.80;;;;;;5033434;28;20024;-74
2022/06/18 14:46:53;;;;;;;;;;;36.70;62.00;;;;;;5033247;28;20293;-74
2022/06/18 14:49:25;;;;;;;;;;;37.20;61.50;;;;;;5033425;28;19925;-74